sensor_id;sensor_type;location;lat;lon;timestamp;pressure;altitude;pressure_sealevel;temperature;humidity
69574;BME280;62840;52.366;5.980;2023-05-23T00:00:28;101694.00;;;16.25;65.75
69574;BME280;62840;52.366;5.980;2023-05-23T00:02:53;101693.28;;;16.23;65.64
69574;BME280;62840;52.366;5.980;2023-05-23T00:05:19;101691.31;;;16.25;65.62
69574;BME280;62840;52.366;5.980;2023-05-23T00:07:45;101691.56;;;16.22;65.82
69574;BME280;62840;52.366;5.980;2023-05-23T00:10:13;101703.34;;;16.21;65.58
69574;BME280;62840;52.366;5.980;2023-05-23T00:12:39;101708.00;;;16.19;65.88
69574;BME280;62840;52.366;5.980;2023-05-23T00:15:06;101695.81;;;16.15;65.64
69574;BME280;62840;52.366;5.980;2023-05-23T00:17:33;101707.03;;;16.10;65.56
69574;BME280;62840;52.366;5.980;2023-05-23T00:19:58;101708.47;;;16.04;66.07
69574;BME280;62840;52.366;5.980;2023-05-23T00:22:24;101715.81;;;16.02;66.31
69574;BME280;62840;52.366;5.980;2023-05-23T00:24:50;101707.03;;;16.00;65.99
69574;BME280;62840;52.366;5.980;2023-05-23T00:27:19;101710.69;;;15.99;66.41
69574;BME280;62840;52.366;5.980;2023-05-23T00:29:45;101720.03;;;15.95;66.31
69574;BME280;62840;52.366;5.980;2023-05-23T00:32:10;101718.91;;;15.88;66.18
69574;BME280;62840;52.366;5.980;2023-05-23T00:34:36;101716.63;;;15.83;66.71
69574;BME280;62840;52.366;5.980;2023-05-23T00:37:03;101732.44;;;15.77;66.54
69574;BME280;62840;52.366;5.980;2023-05-23T00:39:29;101726.50;;;15.73;66.44
69574;BME280;62840;52.366;5.980;2023-05-23T00:41:55;101733.03;;;15.71;66.74
69574;BME280;62840;52.366;5.980;2023-05-23T00:44:23;101734.28;;;15.67;66.71
69574;BME280;62840;52.366;5.980;2023-05-23T00:46:51;101735.25;;;15.65;66.98
69574;BME280;62840;52.366;5.980;2023-05-23T00:49:20;101725.75;;;15.61;67.02
69574;BME280;62840;52.366;5.980;2023-05-23T00:51:46;101731.56;;;15.57;66.95
69574;BME280;62840;52.366;5.980;2023-05-23T00:54:13;101732.69;;;15.54;66.98
69574;BME280;62840;52.366;5.980;2023-05-23T00:56:40;101733.69;;;15.53;67.20
69574;BME280;62840;52.366;5.980;2023-05-23T00:59:06;101732.69;;;15.54;66.90
69574;BME280;62840;52.366;5.980;2023-05-23T01:01:35;101727.47;;;15.53;66.84
69574;BME280;62840;52.366;5.980;2023-05-23T01:04:01;101731.00;;;15.53;67.18
69574;BME280;62840;52.366;5.980;2023-05-23T01:06:27;101729.28;;;15.52;67.21
69574;BME280;62840;52.366;5.980;2023-05-23T01:08:53;101728.44;;;15.52;67.37
69574;BME280;62840;52.366;5.980;2023-05-23T01:11:29;101725.88;;;15.50;67.30
69574;BME280;62840;52.366;5.980;2023-05-23T01:14:03;101727.84;;;15.48;67.17
69574;BME280;62840;52.366;5.980;2023-05-23T01:16:42;101728.72;;;15.49;67.37
69574;BME280;62840;52.366;5.980;2023-05-23T01:19:27;101728.84;;;15.47;67.31
69574;BME280;62840;52.366;5.980;2023-05-23T01:22:13;101733.50;;;15.45;67.10
69574;BME280;62840;52.366;5.980;2023-05-23T01:24:54;101732.06;;;15.41;67.03
69574;BME280;62840;52.366;5.980;2023-05-23T01:27:38;101734.75;;;15.41;67.43
69574;BME280;62840;52.366;5.980;2023-05-23T01:30:10;101734.03;;;15.39;67.26
69574;BME280;62840;52.366;5.980;2023-05-23T01:32:39;101733.19;;;15.38;67.31
69574;BME280;62840;52.366;5.980;2023-05-23T01:35:08;101744.81;;;15.39;67.39
69574;BME280;62840;52.366;5.980;2023-05-23T01:37:35;101744.81;;;15.39;67.30
69574;BME280;62840;52.366;5.980;2023-05-23T01:40:01;101743.13;;;15.38;67.28
69574;BME280;62840;52.366;5.980;2023-05-23T01:42:27;101739.72;;;15.36;67.11
69574;BME280;62840;52.366;5.980;2023-05-23T01:44:56;101746.22;;;15.33;67.32
69574;BME280;62840;52.366;5.980;2023-05-23T01:47:22;101749.03;;;15.32;67.25
69574;BME280;62840;52.366;5.980;2023-05-23T01:49:48;101747.34;;;15.31;67.38
69574;BME280;62840;52.366;5.980;2023-05-23T01:52:15;101743.94;;;15.29;67.21
69574;BME280;62840;52.366;5.980;2023-05-23T01:54:42;101752.00;;;15.29;67.65
69574;BME280;62840;52.366;5.980;2023-05-23T01:57:08;101749.31;;;15.29;67.56
69574;BME280;62840;52.366;5.980;2023-05-23T01:59:35;101758.34;;;15.28;67.43
69574;BME280;62840;52.366;5.980;2023-05-23T02:02:04;101765.44;;;15.29;67.60
69574;BME280;62840;52.366;5.980;2023-05-23T02:04:30;101758.34;;;15.28;67.49
69574;BME280;62840;52.366;5.980;2023-05-23T02:06:56;101751.00;;;15.30;67.65
69574;BME280;62840;52.366;5.980;2023-05-23T02:09:22;101757.50;;;15.27;67.43
69574;BME280;62840;52.366;5.980;2023-05-23T02:11:47;101764.72;;;15.27;67.71
69574;BME280;62840;52.366;5.980;2023-05-23T02:14:13;101767.41;;;15.27;67.50
69574;BME280;62840;52.366;5.980;2023-05-23T02:16:39;101770.81;;;15.29;67.74
69574;BME280;62840;52.366;5.980;2023-05-23T02:19:07;101770.81;;;15.29;67.52
69574;BME280;62840;52.366;5.980;2023-05-23T02:21:33;101767.13;;;15.30;68.01
69574;BME280;62840;52.366;5.980;2023-05-23T02:23:59;101773.50;;;15.29;67.50
69574;BME280;62840;52.366;5.980;2023-05-23T02:26:24;101781.56;;;15.29;67.83
69574;BME280;62840;52.366;5.980;2023-05-23T02:28:50;101781.56;;;15.29;67.82
69574;BME280;62840;52.366;5.980;2023-05-23T02:31:16;101788.91;;;15.27;67.60
69574;BME280;62840;52.366;5.980;2023-05-23T02:33:42;101794.28;;;15.27;67.76
69574;BME280;62840;52.366;5.980;2023-05-23T02:36:10;101794.56;;;15.23;67.94
69574;BME280;62840;52.366;5.980;2023-05-23T02:38:36;101799.34;;;15.20;67.92
69574;BME280;62840;52.366;5.980;2023-05-23T02:41:02;101801.19;;;15.19;67.85
69574;BME280;62840;52.366;5.980;2023-05-23T02:43:28;101802.16;;;15.18;67.94
69574;BME280;62840;52.366;5.980;2023-05-23T02:45:54;101801.41;;;15.16;67.75
69574;BME280;62840;52.366;5.980;2023-05-23T02:48:20;101798.16;;;15.13;67.56
69574;BME280;62840;52.366;5.980;2023-05-23T02:50:45;101800.97;;;15.11;67.92
69574;BME280;62840;52.366;5.980;2023-05-23T02:53:14;101800.97;;;15.11;67.61
69574;BME280;62840;52.366;5.980;2023-05-23T02:55:40;101791.34;;;15.09;67.65
69574;BME280;62840;52.366;5.980;2023-05-23T02:58:05;101799.53;;;15.07;67.88
69574;BME280;62840;52.366;5.980;2023-05-23T03:00:31;101789.78;;;15.06;67.68
69574;BME280;62840;52.366;5.980;2023-05-23T03:02:57;101802.78;;;15.01;67.57
69574;BME280;62840;52.366;5.980;2023-05-23T03:05:23;101805.47;;;15.01;67.84
69574;BME280;62840;52.366;5.980;2023-05-23T03:07:48;101800.34;;;14.98;67.81
69574;BME280;62840;52.366;5.980;2023-05-23T03:10:17;101804.03;;;14.97;67.99
69574;BME280;62840;52.366;5.980;2023-05-23T03:12:42;101803.19;;;14.96;67.86
69574;BME280;62840;52.366;5.980;2023-05-23T03:15:09;101802.06;;;14.99;67.70
69574;BME280;62840;52.366;5.980;2023-05-23T03:17:35;101813.66;;;14.99;67.56
69574;BME280;62840;52.366;5.980;2023-05-23T03:20:01;101804.75;;;14.99;67.50
69574;BME280;62840;52.366;5.980;2023-05-23T03:22:27;101810.84;;;15.01;67.79
69574;BME280;62840;52.366;5.980;2023-05-23T03:24:52;101807.44;;;14.99;67.42
69574;BME280;62840;52.366;5.980;2023-05-23T03:27:21;101816.44;;;14.98;67.84
69574;BME280;62840;52.366;5.980;2023-05-23T03:29:46;101820.13;;;14.97;67.71
69574;BME280;62840;52.366;5.980;2023-05-23T03:32:12;101819.28;;;14.96;67.55
69574;BME280;62840;52.366;5.980;2023-05-23T03:34:38;101817.56;;;14.95;67.37
69574;BME280;62840;52.366;5.980;2023-05-23T03:37:04;101811.22;;;14.96;67.45
69574;BME280;62840;52.366;5.980;2023-05-23T03:39:30;101814.75;;;14.97;67.49
69574;BME280;62840;52.366;5.980;2023-05-23T03:41:56;101811.09;;;14.98;67.23
69574;BME280;62840;52.366;5.980;2023-05-23T03:44:24;101813.75;;;14.98;67.20
69574;BME280;62840;52.366;5.980;2023-05-23T03:46:50;101812.09;;;14.97;67.34
69574;BME280;62840;52.366;5.980;2023-05-23T03:49:15;101814.88;;;14.95;67.28
69574;BME280;62840;52.366;5.980;2023-05-23T03:51:41;101817.69;;;14.94;67.30
69574;BME280;62840;52.366;5.980;2023-05-23T03:54:07;101824.34;;;14.90;67.47
69574;BME280;62840;52.366;5.980;2023-05-23T03:56:33;101828.00;;;14.89;67.42
69574;BME280;62840;52.366;5.980;2023-05-23T03:58:58;101828.25;;;14.86;67.14
69574;BME280;62840;52.366;5.980;2023-05-23T04:01:26;101831.19;;;14.82;67.19
69574;BME280;62840;52.366;5.980;2023-05-23T04:03:52;101848.31;;;14.81;67.54
69574;BME280;62840;52.366;5.980;2023-05-23T04:06:18;101844.16;;;14.77;67.17
69574;BME280;62840;52.366;5.980;2023-05-23T04:08:44;101846.00;;;14.77;67.00
69574;BME280;62840;52.366;5.980;2023-05-23T04:11:10;101851.50;;;14.75;67.17
69574;BME280;62840;52.366;5.980;2023-05-23T04:13:36;101855.19;;;14.74;67.43
69574;BME280;62840;52.366;5.980;2023-05-23T04:16:02;101856.13;;;14.73;67.34
69574;BME280;62840;52.366;5.980;2023-05-23T04:18:30;101858.09;;;14.71;67.02
69574;BME280;62840;52.366;5.980;2023-05-23T04:20:56;101853.22;;;14.65;67.33
69574;BME280;62840;52.366;5.980;2023-05-23T04:23:22;101862.53;;;14.61;66.99
69574;BME280;62840;52.366;5.980;2023-05-23T04:25:47;101861.06;;;14.57;67.23
69574;BME280;62840;52.366;5.980;2023-05-23T04:28:13;101866.69;;;14.54;67.21
69574;BME280;62840;52.366;5.980;2023-05-23T04:30:39;101864.13;;;14.52;67.40
69574;BME280;62840;52.366;5.980;2023-05-23T04:33:05;101867.78;;;14.51;67.46
69574;BME280;62840;52.366;5.980;2023-05-23T04:35:33;101876.00;;;14.50;67.41
69574;BME280;62840;52.366;5.980;2023-05-23T04:37:59;101890.38;;;14.49;67.08
69574;BME280;62840;52.366;5.980;2023-05-23T04:40:24;101884.53;;;14.44;67.07
69574;BME280;62840;52.366;5.980;2023-05-23T04:42:50;101889.19;;;14.41;67.29
69574;BME280;62840;52.366;5.980;2023-05-23T04:45:16;101887.72;;;14.37;67.01
69574;BME280;62840;52.366;5.980;2023-05-23T04:47:42;101892.34;;;14.35;67.37
69574;BME280;62840;52.366;5.980;2023-05-23T04:50:09;101899.72;;;14.33;67.11
69574;BME280;62840;52.366;5.980;2023-05-23T04:52:37;101908.72;;;14.32;67.35
69574;BME280;62840;52.366;5.980;2023-05-23T04:55:04;101903.63;;;14.29;67.29
69574;BME280;62840;52.366;5.980;2023-05-23T04:57:30;101915.56;;;14.25;67.28
69574;BME280;62840;52.366;5.980;2023-05-23T04:59:56;101912.41;;;14.20;67.22
69574;BME280;62840;52.366;5.980;2023-05-23T05:02:21;101926.06;;;14.17;67.41
69574;BME280;62840;52.366;5.980;2023-05-23T05:04:47;101923.63;;;14.14;67.01
69574;BME280;62840;52.366;5.980;2023-05-23T05:07:13;101926.44;;;14.12;67.26
69574;BME280;62840;52.366;5.980;2023-05-23T05:09:42;101933.75;;;14.10;67.21
69574;BME280;62840;52.366;5.980;2023-05-23T05:12:07;101933.16;;;14.07;67.27
69574;BME280;62840;52.366;5.980;2023-05-23T05:14:33;101942.41;;;14.03;67.26
69574;BME280;62840;52.366;5.980;2023-05-23T05:16:59;101940.94;;;13.98;67.25
69574;BME280;62840;52.366;5.980;2023-05-23T05:19:25;101943.88;;;13.95;67.22
69574;BME280;62840;52.366;5.980;2023-05-23T05:21:50;101947.53;;;13.94;67.34
69574;BME280;62840;52.366;5.980;2023-05-23T05:24:16;101954.84;;;13.92;67.36
69574;BME280;62840;52.366;5.980;2023-05-23T05:26:44;101955.84;;;13.91;67.31
69574;BME280;62840;52.366;5.980;2023-05-23T05:29:11;101949.63;;;13.91;67.04
69574;BME280;62840;52.366;5.980;2023-05-23T05:31:36;101959.47;;;13.90;67.05
69574;BME280;62840;52.366;5.980;2023-05-23T05:34:02;101964.13;;;13.88;67.20
69574;BME280;62840;52.366;5.980;2023-05-23T05:36:28;101966.06;;;13.86;67.04
69574;BME280;62840;52.366;5.980;2023-05-23T05:38:54;101976.06;;;13.84;67.11
69574;BME280;62840;52.366;5.980;2023-05-23T05:41:19;101986.78;;;13.84;66.89
69574;BME280;62840;52.366;5.980;2023-05-23T05:43:48;101982.53;;;13.82;66.85
69574;BME280;62840;52.366;5.980;2023-05-23T05:46:13;101990.91;;;13.77;66.94
69574;BME280;62840;52.366;5.980;2023-05-23T05:48:39;101988.47;;;13.74;67.10
69574;BME280;62840;52.366;5.980;2023-05-23T05:51:05;101986.03;;;13.71;66.91
69574;BME280;62840;52.366;5.980;2023-05-23T05:53:31;102003.81;;;13.72;66.71
69574;BME280;62840;52.366;5.980;2023-05-23T05:55:57;101993.34;;;13.69;66.76
69574;BME280;62840;52.366;5.980;2023-05-23T05:58:23;101996.97;;;13.68;67.14
69574;BME280;62840;52.366;5.980;2023-05-23T06:00:51;102005.75;;;13.70;67.06
69574;BME280;62840;52.366;5.980;2023-05-23T06:03:17;102000.41;;;13.70;66.84
69574;BME280;62840;52.366;5.980;2023-05-23T06:05:42;102011.13;;;13.70;66.81
69574;BME280;62840;52.366;5.980;2023-05-23T06:08:08;102011.38;;;13.67;66.41
69574;BME280;62840;52.366;5.980;2023-05-23T06:10:36;102011.63;;;13.64;66.43
69574;BME280;62840;52.366;5.980;2023-05-23T06:13:02;102011.00;;;13.60;66.63
69574;BME280;62840;52.366;5.980;2023-05-23T06:15:28;102005.00;;;13.56;66.36
69574;BME280;62840;52.366;5.980;2023-05-23T06:17:56;102023.03;;;13.54;66.65
69574;BME280;62840;52.366;5.980;2023-05-23T06:20:22;102014.25;;;13.52;66.48
69574;BME280;62840;52.366;5.980;2023-05-23T06:22:48;102022.50;;;13.49;66.53
69574;BME280;62840;52.366;5.980;2023-05-23T06:25:13;102027.13;;;13.47;66.20
69574;BME280;62840;52.366;5.980;2023-05-23T06:27:39;102025.63;;;13.43;66.14
69574;BME280;62840;52.366;5.980;2023-05-23T06:30:06;102032.97;;;13.41;66.40
69574;BME280;62840;52.366;5.980;2023-05-23T06:32:32;102035.63;;;13.41;66.33
69574;BME280;62840;52.366;5.980;2023-05-23T06:35:01;102032.97;;;13.41;66.12
69574;BME280;62840;52.366;5.980;2023-05-23T06:37:27;102031.22;;;13.40;66.28
69574;BME280;62840;52.366;5.980;2023-05-23T06:39:52;102043.69;;;13.41;66.11
69574;BME280;62840;52.366;5.980;2023-05-23T06:42:18;102043.69;;;13.41;66.07
69574;BME280;62840;52.366;5.980;2023-05-23T06:44:44;102053.53;;;13.41;65.64
69574;BME280;62840;52.366;5.980;2023-05-23T06:47:10;102048.28;;;13.39;65.44
69574;BME280;62840;52.366;5.980;2023-05-23T06:49:35;102058.28;;;13.37;65.33
69574;BME280;62840;52.366;5.980;2023-05-23T06:52:04;102054.00;;;13.34;65.23
69574;BME280;62840;52.366;5.980;2023-05-23T06:54:29;102055.06;;;13.32;65.07
69574;BME280;62840;52.366;5.980;2023-05-23T06:56:55;102057.03;;;13.30;65.01
69574;BME280;62840;52.366;5.980;2023-05-23T06:59:21;102055.94;;;13.32;65.14
69574;BME280;62840;52.366;5.980;2023-05-23T07:01:47;102050.44;;;13.34;65.16
69574;BME280;62840;52.366;5.980;2023-05-23T07:04:12;102049.25;;;13.38;65.27
69574;BME280;62840;52.366;5.980;2023-05-23T07:06:38;102061.69;;;13.39;64.79
69574;BME280;62840;52.366;5.980;2023-05-23T07:09:07;102058.78;;;13.42;64.76
69574;BME280;62840;52.366;5.980;2023-05-23T07:11:32;102057.94;;;13.42;64.85
69574;BME280;62840;52.366;5.980;2023-05-23T07:13:58;102060.59;;;13.42;64.45
69574;BME280;62840;52.366;5.980;2023-05-23T07:16:24;102073.16;;;13.41;64.50
69574;BME280;62840;52.366;5.980;2023-05-23T07:18:50;102073.03;;;13.43;64.86
69574;BME280;62840;52.366;5.980;2023-05-23T07:21:15;102075.84;;;13.41;64.67
69574;BME280;62840;52.366;5.980;2023-05-23T07:23:41;102080.56;;;13.37;64.46
69574;BME280;62840;52.366;5.980;2023-05-23T07:26:09;102092.38;;;13.35;64.32
69574;BME280;62840;52.366;5.980;2023-05-23T07:28:35;102079.19;;;13.32;64.59
69574;BME280;62840;52.366;5.980;2023-05-23T07:31:01;102076.50;;;13.32;64.44
69574;BME280;62840;52.366;5.980;2023-05-23T07:33:27;102086.16;;;13.34;64.50
69574;BME280;62840;52.366;5.980;2023-05-23T07:35:53;102082.50;;;13.35;64.49
69574;BME280;62840;52.366;5.980;2023-05-23T07:38:18;102086.66;;;13.40;64.52
69574;BME280;62840;52.366;5.980;2023-05-23T07:40:44;102086.41;;;13.43;64.04
69574;BME280;62840;52.366;5.980;2023-05-23T07:43:12;102088.00;;;13.45;64.04
69574;BME280;62840;52.366;5.980;2023-05-23T07:45:38;102085.13;;;13.48;63.68
69574;BME280;62840;52.366;5.980;2023-05-23T07:48:04;102092.91;;;13.51;63.84
69574;BME280;62840;52.366;5.980;2023-05-23T07:50:30;102079.31;;;13.54;63.60
69574;BME280;62840;52.366;5.980;2023-05-23T07:52:55;102087.97;;;13.58;63.59
69574;BME280;62840;52.366;5.980;2023-05-23T07:55:21;102079.59;;;13.63;63.22
69574;BME280;62840;52.366;5.980;2023-05-23T07:57:47;102066.94;;;13.65;63.32
69574;BME280;62840;52.366;5.980;2023-05-23T08:00:16;102072.28;;;13.65;62.92
69574;BME280;62840;52.366;5.980;2023-05-23T08:02:42;102087.28;;;13.67;62.83
69574;BME280;62840;52.366;5.980;2023-05-23T08:05:09;102082.78;;;13.68;63.08
69574;BME280;62840;52.366;5.980;2023-05-23T08:07:35;102078.41;;;13.67;62.49
69574;BME280;62840;52.366;5.980;2023-05-23T08:10:00;102086.44;;;13.67;62.54
69574;BME280;62840;52.366;5.980;2023-05-23T08:12:26;102083.50;;;13.70;62.29
69574;BME280;62840;52.366;5.980;2023-05-23T08:14:52;102091.34;;;13.73;62.35
69574;BME280;62840;52.366;5.980;2023-05-23T08:17:20;102087.44;;;13.77;62.00
69574;BME280;62840;52.366;5.980;2023-05-23T08:19:46;102090.84;;;13.79;61.50
69574;BME280;62840;52.366;5.980;2023-05-23T08:22:12;102096.94;;;13.81;61.47
69574;BME280;62840;52.366;5.980;2023-05-23T08:24:37;102088.69;;;13.84;61.05
69574;BME280;62840;52.366;5.980;2023-05-23T08:27:04;102093.31;;;13.82;60.47
69574;BME280;62840;52.366;5.980;2023-05-23T08:29:30;102108.66;;;13.80;60.89
69574;BME280;62840;52.366;5.980;2023-05-23T08:31:55;102115.97;;;13.78;60.83
69574;BME280;62840;52.366;5.980;2023-05-23T08:34:24;102123.03;;;13.79;60.84
69574;BME280;62840;52.366;5.980;2023-05-23T08:36:49;102115.97;;;13.78;60.38
69574;BME280;62840;52.366;5.980;2023-05-23T08:39:15;102122.81;;;13.82;60.71
69574;BME280;62840;52.366;5.980;2023-05-23T08:41:41;102113.31;;;13.89;60.63
69574;BME280;62840;52.366;5.980;2023-05-23T08:44:07;102111.13;;;13.94;60.32
69574;BME280;62840;52.366;5.980;2023-05-23T08:46:34;102117.97;;;13.98;59.96
69574;BME280;62840;52.366;5.980;2023-05-23T08:49:05;102119.47;;;14.03;60.06
69574;BME280;62840;52.366;5.980;2023-05-23T08:51:35;102128.25;;;14.05;59.52
69574;BME280;62840;52.366;5.980;2023-05-23T08:54:03;102131.66;;;14.07;59.64
69574;BME280;62840;52.366;5.980;2023-05-23T08:56:30;102138.00;;;14.06;59.52
69574;BME280;62840;52.366;5.980;2023-05-23T08:58:56;102151.66;;;14.03;59.12
69574;BME280;62840;52.366;5.980;2023-05-23T09:01:23;102140.19;;;14.01;59.35
69574;BME280;62840;52.366;5.980;2023-05-23T09:03:50;102141.16;;;13.99;59.56
69574;BME280;62840;52.366;5.980;2023-05-23T09:06:19;102142.63;;;14.04;59.47
69574;BME280;62840;52.366;5.980;2023-05-23T09:08:48;102142.16;;;14.10;59.60
69574;BME280;62840;52.366;5.980;2023-05-23T09:11:15;102150.47;;;14.18;59.94
69574;BME280;62840;52.366;5.980;2023-05-23T09:13:41;102148.28;;;14.23;59.10
69574;BME280;62840;52.366;5.980;2023-05-23T09:16:08;102147.94;;;14.28;58.97
69574;BME280;62840;52.366;5.980;2023-05-23T09:18:37;102144.41;;;14.27;58.71
69574;BME280;62840;52.366;5.980;2023-05-23T09:21:04;102147.06;;;14.27;58.66
69574;BME280;62840;52.366;5.980;2023-05-23T09:23:32;102151.47;;;14.28;58.97
69574;BME280;62840;52.366;5.980;2023-05-23T09:26:06;102158.31;;;14.32;58.99
69574;BME280;62840;52.366;5.980;2023-05-23T09:28:34;102155.16;;;14.38;58.86
69574;BME280;62840;52.366;5.980;2023-05-23T09:31:02;102152.69;;;14.47;58.31
69574;BME280;62840;52.366;5.980;2023-05-23T09:33:35;102159.44;;;14.52;58.40
69574;BME280;62840;52.366;5.980;2023-05-23T09:36:04;102161.50;;;14.60;58.38
69574;BME280;62840;52.366;5.980;2023-05-23T09:38:30;102159.34;;;14.65;58.40
69574;BME280;62840;52.366;5.980;2023-05-23T09:40:57;102168.81;;;14.69;58.51
69574;BME280;62840;52.366;5.980;2023-05-23T09:43:27;102161.44;;;14.73;58.19
69574;BME280;62840;52.366;5.980;2023-05-23T09:45:53;102171.06;;;14.75;57.94
69574;BME280;62840;52.366;5.980;2023-05-23T09:48:19;102170.09;;;14.76;58.02
69574;BME280;62840;52.366;5.980;2023-05-23T09:50:52;102165.47;;;14.78;57.69
69574;BME280;62840;52.366;5.980;2023-05-23T09:53:17;102162.53;;;14.81;57.18
69574;BME280;62840;52.366;5.980;2023-05-23T09:55:43;102169.38;;;14.86;57.36
69574;BME280;62840;52.366;5.980;2023-05-23T09:58:10;102163.38;;;14.93;57.02
69574;BME280;62840;52.366;5.980;2023-05-23T10:00:39;102168.25;;;14.99;57.08
69574;BME280;62840;52.366;5.980;2023-05-23T10:03:09;102162.53;;;15.04;57.00
69574;BME280;62840;52.366;5.980;2023-05-23T10:05:39;102168.63;;;15.06;56.46
69574;BME280;62840;52.366;5.980;2023-05-23T10:08:11;102165.22;;;15.04;56.25
69574;BME280;62840;52.366;5.980;2023-05-23T10:14:28;102168.63;;;15.06;56.70
69574;BME280;62840;52.366;5.980;2023-05-23T10:17:06;102154.19;;;15.07;56.10
69574;BME280;62840;52.366;5.980;2023-05-23T10:19:41;102166.91;;;15.05;55.89
69574;BME280;62840;52.366;5.980;2023-05-23T10:22:09;102173.25;;;15.04;55.90
69574;BME280;62840;52.366;5.980;2023-05-23T10:24:38;102174.22;;;15.03;56.13
69574;BME280;62840;52.366;5.980;2023-05-23T10:27:05;102170.59;;;15.04;56.17
69574;BME280;62840;52.366;5.980;2023-05-23T10:29:32;102172.28;;;15.05;55.87
69574;BME280;62840;52.366;5.980;2023-05-23T10:32:02;102172.28;;;15.05;56.23
69574;BME280;62840;52.366;5.980;2023-05-23T10:34:35;102177.41;;;15.08;55.94
69574;BME280;62840;52.366;5.980;2023-05-23T10:37:07;102165.31;;;15.14;56.32
69574;BME280;62840;52.366;5.980;2023-05-23T10:39:56;102172.16;;;15.18;56.32
69574;BME280;62840;52.366;5.980;2023-05-23T10:42:40;102183.63;;;15.20;55.91
69574;BME280;62840;52.366;5.980;2023-05-23T10:45:16;102191.81;;;15.18;55.75
69574;BME280;62840;52.366;5.980;2023-05-23T10:47:46;102185.84;;;15.15;55.59
69574;BME280;62840;52.366;5.980;2023-05-23T10:50:14;102195.59;;;15.16;55.40
69574;BME280;62840;52.366;5.980;2023-05-23T10:52:54;102186.81;;;15.14;54.71
69574;BME280;62840;52.366;5.980;2023-05-23T10:55:20;102176.19;;;15.12;55.29
69574;BME280;62840;52.366;5.980;2023-05-23T10:57:46;102185.69;;;15.16;55.67
69574;BME280;62840;52.366;5.980;2023-05-23T11:00:35;102190.69;;;15.21;55.62
69574;BME280;62840;52.366;5.980;2023-05-23T11:03:04;102194.00;;;15.24;55.91
69574;BME280;62840;52.366;5.980;2023-05-23T11:05:31;102194.00;;;15.24;55.53
69574;BME280;62840;52.366;5.980;2023-05-23T11:08:07;102194.00;;;15.24;55.52
69574;BME280;62840;52.366;5.980;2023-05-23T11:10:52;102194.00;;;15.24;55.46
69574;BME280;62840;52.366;5.980;2023-05-23T11:13:20;102194.00;;;15.24;55.38
69574;BME280;62840;52.366;5.980;2023-05-23T11:15:47;102192.66;;;15.30;55.63
69574;BME280;62840;52.366;5.980;2023-05-23T11:18:25;102198.63;;;15.34;54.42
69574;BME280;62840;52.366;5.980;2023-05-23T11:20:52;102206.97;;;15.31;54.75
69574;BME280;62840;52.366;5.980;2023-05-23T11:23:19;102209.88;;;15.28;54.86
69574;BME280;62840;52.366;5.980;2023-05-23T11:25:48;102195.69;;;15.26;55.46
69574;BME280;62840;52.366;5.980;2023-05-23T11:28:15;102198.16;;;15.29;55.16
69574;BME280;62840;52.366;5.980;2023-05-23T11:30:41;102197.78;;;15.33;55.22
69574;BME280;62840;52.366;5.980;2023-05-23T11:33:07;102204.00;;;15.45;55.38
69574;BME280;62840;52.366;5.980;2023-05-23T11:35:38;102202.28;;;15.55;54.79
69574;BME280;62840;52.366;5.980;2023-05-23T11:38:04;102203.97;;;15.56;54.42
69574;BME280;62840;52.366;5.980;2023-05-23T11:40:32;102207.88;;;15.52;54.17
69574;BME280;62840;52.366;5.980;2023-05-23T11:42:59;102208.41;;;15.46;54.36
69574;BME280;62840;52.366;5.980;2023-05-23T11:45:28;102208.78;;;15.41;54.73
69574;BME280;62840;52.366;5.980;2023-05-23T11:47:54;102207.16;;;15.39;54.24
69574;BME280;62840;52.366;5.980;2023-05-23T11:50:20;102206.31;;;15.38;54.09
69574;BME280;62840;52.366;5.980;2023-05-23T11:52:49;102202.06;;;15.36;54.00
69574;BME280;62840;52.366;5.980;2023-05-23T11:55:15;102204.75;;;15.36;53.97
69574;BME280;62840;52.366;5.980;2023-05-23T11:57:42;102198.88;;;15.42;53.94
69574;BME280;62840;52.366;5.980;2023-05-23T12:00:09;102201.19;;;15.47;54.14
69574;BME280;62840;52.366;5.980;2023-05-23T12:02:37;102204.47;;;15.50;54.19
69574;BME280;62840;52.366;5.980;2023-05-23T12:05:07;102214.47;;;15.48;54.11
69574;BME280;62840;52.366;5.980;2023-05-23T12:07:33;102212.06;;;15.45;53.63
69574;BME280;62840;52.366;5.980;2023-05-23T12:10:02;102219.88;;;15.37;53.59
69574;BME280;62840;52.366;5.980;2023-05-23T12:12:28;102214.28;;;15.29;53.54
69574;BME280;62840;52.366;5.980;2023-05-23T12:14:55;102212.81;;;15.24;53.69
69574;BME280;62840;52.366;5.980;2023-05-23T12:17:22;102213.56;;;15.27;54.27
69574;BME280;62840;52.366;5.980;2023-05-23T12:19:48;102214.03;;;15.32;53.76
69574;BME280;62840;52.366;5.980;2023-05-23T12:22:14;102216.22;;;15.38;54.31
69574;BME280;62840;52.366;5.980;2023-05-23T12:24:44;102221.97;;;15.44;53.55
69574;BME280;62840;52.366;5.980;2023-05-23T12:27:13;102220.47;;;15.52;53.53
69574;BME280;62840;52.366;5.980;2023-05-23T12:29:41;102228.28;;;15.55;53.18
69574;BME280;62840;52.366;5.980;2023-05-23T12:32:06;102224.88;;;15.53;53.11
69574;BME280;62840;52.366;5.980;2023-05-23T12:34:32;102219.25;;;15.56;52.95
69574;BME280;62840;52.366;5.980;2023-05-23T12:37:00;102211.06;;;15.57;52.91
69574;BME280;62840;52.366;5.980;2023-05-23T12:39:27;102238.06;;;15.56;52.78
69574;BME280;62840;52.366;5.980;2023-05-23T12:41:53;102233.06;;;15.51;52.30
69574;BME280;62840;52.366;5.980;2023-05-23T12:44:22;102220.38;;;15.53;52.76
69574;BME280;62840;52.366;5.980;2023-05-23T12:46:48;102221.28;;;15.63;53.36
69574;BME280;62840;52.366;5.980;2023-05-23T12:49:14;102224.56;;;15.78;52.79
69574;BME280;62840;52.366;5.980;2023-05-23T12:51:40;102233.47;;;15.90;52.73
69574;BME280;62840;52.366;5.980;2023-05-23T12:54:07;102229.56;;;15.94;52.34